Current | Forecast
Updated: 10:00 AM +09 on November 19, 2017
Observed at Yakutsk, Russia
Temperature -40°F
Humidity 67%
Dew Point -47°F
Wind NNW at 2 mph
Pressure 30.18 in (Steady)
Conditions Fog
Visibility 0.2 miles
UV N/A
Clouds
Yesterday's Maximum -17°F
Yesterday's Minimum -35°F approx.
Yesterday's Heating Degree Days 91 approx.
Sunrise8:39 AM +09
Sunset3:25 PM +09
Moon Rise8:40 AM +09
Moon Set4:27 PM +09
Moon PhaseMoon Phase
New Moon
Raw METARMETAR UEEE 190100Z 33001MPS 0400 0350NE R23L/0450N FG NSC M40/M44 Q1022 R23L/490150 NOSIG RMK QFE758


Monday
. High: 51° F.
Tuesday
. High: 53° F.
Wednesday
. High: 57° F.
Thursday
. High: 55° F.
Friday
. High: 57° F.
Saturday
. High: 64° F.
Sunday
. High: 57° F.
Monday
. High: 59° F.

Units: English | Metric

Find the Weather for any City, State or Zipcode, or Country:

U.S. State List | Severe Weather | Tropical Storms | Ski Conditions
United States | Canada | Central America | South America | Asia | Europe | Australia | Africa | Islands

Weather Underground

© Copyright 2017
The Weather Company, LLC